Time;durP1;ratioP1;P1;durP2;ratioP2;P2;SDS_P1;SDS_P2;PMS_P1;PMS_P2;Temp;Humidity;BMP_temperature;BMP_pressure;BME280_temperature;BME280_humidity;BME280_pressure;Samples;Min_cycle;Max_cycle;Signal;HPM_P1;HPM_P2
2021/01/18 00:00:51;;;;;;;15.30;7.13;;;;;;;;;;4992047;28;20077;-71
2021/01/18 00:03:17;;;;;;;14.20;7.82;;;;;;;;;;4991043;28;20101;-71
2021/01/18 00:05:43;;;;;;;15.77;7.82;;;;;;;;;;4991084;28;20047;-71
2021/01/18 00:08:09;;;;;;;17.30;8.13;;;;;;;;;;4992162;28;20078;-71
2021/01/18 00:10:35;;;;;;;11.52;7.65;;;;;;;;;;4992091;28;20051;-71
2021/01/18 00:13:01;;;;;;;19.85;9.02;;;;;;;;;;4991953;28;20109;-71
2021/01/18 00:15:27;;;;;;;17.15;9.27;;;;;;;;;;4991876;28;20047;-71
2021/01/18 00:17:53;;;;;;;17.42;8.43;;;;;;;;;;4991943;28;20493;-71
2021/01/18 00:20:21;;;;;;;14.80;7.95;;;;;;;;;;4991883;28;20696;-71
2021/01/18 00:22:47;;;;;;;20.25;8.38;;;;;;;;;;4991913;28;20096;-71
2021/01/18 00:25:25;;;;;;;12.05;7.15;;;;;;;;;;4993055;28;20077;-71
2021/01/18 00:27:52;;;;;;;14.40;8.88;;;;;;;;;;4995585;28;20081;-71
2021/01/18 00:30:20;;;;;;;17.55;8.35;;;;;;;;;;4995398;28;20464;-71
2021/01/18 00:32:46;;;;;;;14.05;7.50;;;;;;;;;;4995335;28;20475;-71
2021/01/18 00:35:13;;;;;;;16.65;8.68;;;;;;;;;;4978792;28;20097;-70
2021/01/18 00:37:44;;;;;;;19.27;9.02;;;;;;;;;;4975682;28;20105;-71
2021/01/18 00:40:12;;;;;;;14.75;7.85;;;;;;;;;;4974556;28;20059;-71
2021/01/18 00:42:39;;;;;;;14.38;7.35;;;;;;;;;;4974671;28;20125;-71
2021/01/18 00:45:06;;;;;;;13.02;7.60;;;;;;;;;;4974238;28;20074;-70
2021/01/18 00:47:41;;;;;;;13.02;7.05;;;;;;;;;;4975391;28;20058;-70
2021/01/18 00:50:09;;;;;;;11.15;6.43;;;;;;;;;;4974453;28;20059;-70
2021/01/18 00:52:35;;;;;;;14.60;7.10;;;;;;;;;;4983449;28;20528;-70
2021/01/18 00:55:01;;;;;;;14.43;7.30;;;;;;;;;;4994979;28;20113;-71
2021/01/18 00:57:31;;;;;;;13.25;7.28;;;;;;;;;;4994661;28;20086;-70
2021/01/18 00:59:57;;;;;;;14.05;7.05;;;;;;;;;;4994783;28;20053;-70
2021/01/18 01:02:23;;;;;;;10.32;7.03;;;;;;;;;;4994714;28;20105;-71
2021/01/18 01:04:50;;;;;;;11.70;7.03;;;;;;;;;;4994813;28;20097;-70
2021/01/18 01:07:16;;;;;;;14.90;7.15;;;;;;;;;;4994633;28;20129;-70
2021/01/18 01:09:42;;;;;;;14.55;7.88;;;;;;;;;;4993563;28;20105;-70
2021/01/18 01:12:08;;;;;;;13.18;7.50;;;;;;;;;;4990114;28;20046;-70
2021/01/18 01:14:34;;;;;;;14.50;7.85;;;;;;;;;;4975131;28;20106;-70
2021/01/18 01:17:00;;;;;;;12.10;7.72;;;;;;;;;;4974946;28;20054;-70
2021/01/18 01:19:27;;;;;;;13.70;9.02;;;;;;;;;;4975109;28;20469;-70
2021/01/18 01:21:54;;;;;;;12.60;7.60;;;;;;;;;;4974750;28;20078;-70
2021/01/18 01:24:20;;;;;;;16.45;8.35;;;;;;;;;;4974944;28;20132;-71
2021/01/18 01:26:47;;;;;;;16.00;7.95;;;;;;;;;;4974600;28;20051;-70
2021/01/18 01:29:13;;;;;;;12.25;7.95;;;;;;;;;;4973825;28;20101;-70
2021/01/18 01:31:39;;;;;;;16.23;8.38;;;;;;;;;;4973367;28;20137;-70
2021/01/18 01:34:05;;;;;;;17.13;8.38;;;;;;;;;;4974676;28;20050;-70
2021/01/18 01:36:31;;;;;;;12.30;7.95;;;;;;;;;;4974556;28;20572;-70
2021/01/18 01:38:57;;;;;;;10.77;7.75;;;;;;;;;;4974694;28;20493;-70
2021/01/18 01:41:23;;;;;;;14.23;8.35;;;;;;;;;;4984772;28;20583;-70
2021/01/18 01:43:49;;;;;;;11.65;7.13;;;;;;;;;;4994684;28;20394;-70
2021/01/18 01:46:16;;;;;;;10.75;6.75;;;;;;;;;;4996689;28;20050;-70
2021/01/18 01:48:42;;;;;;;11.30;7.15;;;;;;;;;;5001282;28;20424;-70
2021/01/18 01:51:08;;;;;;;12.05;6.68;;;;;;;;;;4999566;28;20050;-71
2021/01/18 01:53:34;;;;;;;15.75;6.97;;;;;;;;;;5001016;28;20058;-71
2021/01/18 01:56:00;;;;;;;11.00;7.28;;;;;;;;;;5003417;28;20050;-71
2021/01/18 01:58:26;;;;;;;12.48;6.80;;;;;;;;;;5000865;28;20054;-71
2021/01/18 02:00:53;;;;;;;11.02;6.97;;;;;;;;;;4974958;28;20109;-71
2021/01/18 02:03:30;;;;;;;11.13;7.65;;;;;;;;;;4957229;28;20453;-70
2021/01/18 02:05:56;;;;;;;9.68;6.53;;;;;;;;;;4973789;28;20110;-70
2021/01/18 02:08:23;;;;;;;9.57;6.03;;;;;;;;;;4974086;28;20055;-69
2021/01/18 02:10:49;;;;;;;9.05;6.15;;;;;;;;;;4974091;28;20089;-70
2021/01/18 02:13:18;;;;;;;8.30;5.30;;;;;;;;;;4974125;28;20055;-70
2021/01/18 02:16:04;;;;;;;7.30;4.95;;;;;;;;;;4974232;28;20090;-71
2021/01/18 02:18:42;;;;;;;6.68;4.93;;;;;;;;;;4973381;28;20053;-71
2021/01/18 02:21:39;;;;;;;5.90;4.45;;;;;;;;;;4973159;28;20059;-71
2021/01/18 02:24:33;;;;;;;5.88;3.97;;;;;;;;;;4974237;28;20054;-71
2021/01/18 02:26:59;;;;;;;;;;;;;;;;;;4980094;28;20101;-70
2021/01/18 02:29:44;;;;;;;5.45;4.13;;;;;;;;;;4993529;28;19926;-70
2021/01/18 02:32:41;;;;;;;4.88;3.95;;;;;;;;;;4992141;28;20054;-70
2021/01/18 02:35:29;;;;;;;6.78;4.15;;;;;;;;;;4990028;28;20050;-70
2021/01/18 02:38:06;;;;;;;6.25;4.55;;;;;;;;;;4992926;28;20054;-70
2021/01/18 02:40:52;;;;;;;6.85;4.43;;;;;;;;;;4992962;28;20050;-70
2021/01/18 02:43:19;;;;;;;6.68;4.55;;;;;;;;;;4978276;28;20136;-71
2021/01/18 02:45:46;;;;;;;8.18;5.60;;;;;;;;;;4975243;28;20501;-70
2021/01/18 02:48:12;;;;;;;7.65;5.00;;;;;;;;;;4975297;28;20058;-70
2021/01/18 02:50:38;;;;;;;7.15;4.85;;;;;;;;;;4975543;28;20445;-70
2021/01/18 02:53:04;;;;;;;8.90;5.75;;;;;;;;;;4992790;28;20509;-70
2021/01/18 02:55:30;;;;;;;6.50;5.15;;;;;;;;;;4986196;28;20536;-70
2021/01/18 02:58:00;;;;;;;6.47;4.40;;;;;;;;;;4973213;28;20152;-70
2021/01/18 03:00:30;;;;;;;9.35;5.80;;;;;;;;;;4956794;28;20050;-70
2021/01/18 03:03:20;;;;;;;7.47;5.40;;;;;;;;;;4957113;28;20070;-72
2021/01/18 03:05:57;;;;;;;11.93;6.40;;;;;;;;;;4970552;28;20042;-69
2021/01/18 03:08:39;;;;;;;11.68;6.88;;;;;;;;;;4957269;28;20061;-71
2021/01/18 03:11:26;;;;;;;10.75;7.15;;;;;;;;;;4956849;28;20047;-71
2021/01/18 03:14:13;;;;;;;14.68;7.32;;;;;;;;;;4972464;28;20081;-69
2021/01/18 03:16:41;;;;;;;12.35;7.20;;;;;;;;;;4971814;28;20051;-70
2021/01/18 03:19:07;;;;;;;13.65;7.25;;;;;;;;;;4956083;28;20054;-70
2021/01/18 03:21:33;;;;;;;12.02;7.20;;;;;;;;;;4982890;23;20046;-71
2021/01/18 03:23:59;;;;;;;11.75;7.88;;;;;;;;;;4975117;28;20464;-71
2021/01/18 03:26:26;;;;;;;12.23;8.15;;;;;;;;;;4992229;28;20046;-71
2021/01/18 03:28:55;;;;;;;14.55;7.70;;;;;;;;;;4974060;28;20042;-71
2021/01/18 03:31:21;;;;;;;12.18;7.95;;;;;;;;;;4972464;28;20198;-71
2021/01/18 03:33:48;;;;;;;11.88;7.38;;;;;;;;;;4955828;28;20501;-71
2021/01/18 03:36:14;;;;;;;12.55;7.82;;;;;;;;;;4939603;28;20129;-72
2021/01/18 03:38:40;;;;;;;13.55;7.80;;;;;;;;;;4955811;28;20065;-71
2021/01/18 03:41:07;;;;;;;14.10;7.63;;;;;;;;;;4955573;28;20051;-71
2021/01/18 03:43:33;;;;;;;14.68;8.85;;;;;;;;;;4971731;28;20046;-71
2021/01/18 03:46:00;;;;;;;12.07;7.97;;;;;;;;;;4955296;28;20105;-71
2021/01/18 03:48:26;;;;;;;10.48;7.15;;;;;;;;;;4971758;28;20129;-71
2021/01/18 03:50:52;;;;;;;10.95;7.35;;;;;;;;;;4971579;28;20051;-71
2021/01/18 03:53:18;;;;;;;13.25;8.13;;;;;;;;;;4955404;28;20062;-71
2021/01/18 03:55:45;;;;;;;11.18;7.13;;;;;;;;;;4972525;28;20051;-70
2021/01/18 03:58:12;;;;;;;12.35;7.22;;;;;;;;;;4972676;28;20090;-71
2021/01/18 04:00:38;;;;;;;11.82;7.18;;;;;;;;;;4974819;28;20051;-70
2021/01/18 04:03:04;;;;;;;11.52;6.55;;;;;;;;;;4958986;28;20046;-71
2021/01/18 04:05:30;;;;;;;15.68;8.27;;;;;;;;;;4974893;28;20502;-71
2021/01/18 04:07:57;;;;;;;13.13;7.50;;;;;;;;;;4975008;28;20076;-72
2021/01/18 04:10:28;;;;;;;13.40;8.00;;;;;;;;;;4975088;28;20055;-71
2021/01/18 04:12:55;;;;;;;12.07;7.38;;;;;;;;;;4975039;28;20082;-71
2021/01/18 04:15:23;;;;;;;17.35;8.93;;;;;;;;;;4974862;28;20187;-70
2021/01/18 04:17:53;;;;;;;11.98;7.40;;;;;;;;;;4947826;28;20075;-71
2021/01/18 04:20:20;;;;;;;12.30;6.88;;;;;;;;;;4959742;28;20066;-71
2021/01/18 04:22:51;;;;;;;12.95;7.72;;;;;;;;;;4974701;28;20082;-71
2021/01/18 04:25:18;;;;;;;14.85;7.72;;;;;;;;;;4974645;28;20051;-71
2021/01/18 04:27:55;;;;;;;14.10;7.47;;;;;;;;;;4974833;28;20490;-71
2021/01/18 04:30:22;;;;;;;17.30;7.88;;;;;;;;;;4974922;28;20050;-71
2021/01/18 04:32:55;;;;;;;16.38;7.68;;;;;;;;;;4974539;28;20082;-71
2021/01/18 04:35:23;;;;;;;15.57;8.35;;;;;;;;;;4955629;28;20106;-71
2021/01/18 04:37:49;;;;;;;19.33;8.65;;;;;;;;;;4955317;28;20179;-71
2021/01/18 04:40:20;;;;;;;14.52;8.68;;;;;;;;;;4939292;29;20453;-71
2021/01/18 04:42:46;;;;;;;12.95;7.78;;;;;;;;;;4939733;29;20051;-71
2021/01/18 04:45:16;;;;;;;13.07;8.18;;;;;;;;;;4955126;28;20105;-71
2021/01/18 04:47:43;;;;;;;16.85;8.80;;;;;;;;;;4955236;28;20109;-71
2021/01/18 04:50:17;;;;;;;16.80;9.45;;;;;;;;;;4939472;28;20522;-71
2021/01/18 04:52:50;;;;;;;15.38;8.77;;;;;;;;;;4956078;28;20055;-71
2021/01/18 04:55:30;;;;;;;14.45;8.90;;;;;;;;;;4954780;28;20561;-71
2021/01/18 04:58:09;;;;;;;17.10;9.02;;;;;;;;;;4939056;29;20063;-71
2021/01/18 05:00:52;;;;;;;17.00;9.35;;;;;;;;;;4954975;28;20051;-71
2021/01/18 05:03:24;;;;;;;15.60;8.70;;;;;;;;;;4954841;28;20062;-71
2021/01/18 05:05:55;;;;;;;17.08;10.13;;;;;;;;;;4954740;28;20043;-71
2021/01/18 05:08:43;;;;;;;18.73;8.63;;;;;;;;;;4955976;28;20051;-72
2021/01/18 05:11:14;;;;;;;16.67;8.90;;;;;;;;;;4955414;28;20458;-71
2021/01/18 05:13:40;;;;;;;17.58;9.02;;;;;;;;;;4954885;28;20050;-71
2021/01/18 05:16:07;;;;;;;19.23;9.35;;;;;;;;;;4954122;28;20047;-71
2021/01/18 05:18:34;;;;;;;16.23;8.30;;;;;;;;;;4954708;28;20058;-71
2021/01/18 05:21:01;;;;;;;18.10;9.00;;;;;;;;;;4938606;28;20055;-71
2021/01/18 05:23:27;;;;;;;13.30;8.65;;;;;;;;;;4955541;28;20078;-71
2021/01/18 05:26:27;;;;;;;20.02;9.68;;;;;;;;;;4954106;28;20585;-71
2021/01/18 05:28:55;;;;;;;18.63;8.55;;;;;;;;;;4954849;28;20110;-71
2021/01/18 05:31:27;;;;;;;22.80;9.18;;;;;;;;;;4954555;28;20055;-71
2021/01/18 05:33:57;;;;;;;13.43;6.88;;;;;;;;;;4955423;28;20051;-71
2021/01/18 05:36:37;;;;;;;20.95;10.77;;;;;;;;;;4953896;28;20050;-71
2021/01/18 05:39:10;;;;;;;14.13;9.15;;;;;;;;;;4955321;28;20126;-71
2021/01/18 05:41:36;;;;;;;15.13;8.27;;;;;;;;;;4955635;28;20102;-71
2021/01/18 05:44:04;;;;;;;18.33;8.85;;;;;;;;;;4953968;28;20090;-71
2021/01/18 05:46:32;;;;;;;15.95;8.75;;;;;;;;;;4953915;28;20086;-71
2021/01/18 05:49:07;;;;;;;15.50;8.73;;;;;;;;;;4954113;28;20133;-72
2021/01/18 05:51:34;;;;;;;15.23;7.38;;;;;;;;;;4953987;29;20051;-70
2021/01/18 05:54:01;;;;;;;18.30;8.02;;;;;;;;;;4953770;28;20494;-71
2021/01/18 05:56:27;;;;;;;16.80;7.75;;;;;;;;;;4937808;29;20495;-71
2021/01/18 05:58:54;;;;;;;17.88;7.88;;;;;;;;;;4937845;28;20577;-71
2021/01/18 06:01:34;;;;;;;14.73;7.25;;;;;;;;;;4948483;28;20110;-71
2021/01/18 06:04:29;;;;;;;12.35;6.80;;;;;;;;;;4957026;28;20055;-71
2021/01/18 06:06:57;;;;;;;17.42;7.30;;;;;;;;;;4964319;28;20054;-72
2021/01/18 06:09:25;;;;;;;12.45;7.30;;;;;;;;;;4957236;28;20059;-71
2021/01/18 06:11:51;;;;;;;13.00;7.18;;;;;;;;;;4956747;28;20050;-72
2021/01/18 06:14:18;;;;;;;13.80;7.55;;;;;;;;;;4974040;28;20078;-72
2021/01/18 06:16:48;;;;;;;11.25;7.25;;;;;;;;;;4972360;28;20046;-71
2021/01/18 06:19:24;;;;;;;14.52;7.20;;;;;;;;;;4973109;28;20133;-71
2021/01/18 06:21:50;;;;;;;15.15;6.43;;;;;;;;;;4967384;28;20047;-72
2021/01/18 06:24:29;;;;;;;12.73;7.07;;;;;;;;;;4953082;28;20510;-72
2021/01/18 06:26:55;;;;;;;12.27;7.35;;;;;;;;;;4890077;28;26515;-71
2021/01/18 06:29:41;;;;;;;15.55;7.07;;;;;;;;;;4959031;28;20043;-72
2021/01/18 06:32:09;;;;;;;15.85;8.82;;;;;;;;;;4972448;28;20046;-71
2021/01/18 06:34:35;;;;;;;15.43;6.47;;;;;;;;;;4956645;28;20046;-71
2021/01/18 06:37:02;;;;;;;12.82;6.55;;;;;;;;;;4972287;28;20134;-72
2021/01/18 06:39:30;;;;;;;13.27;6.70;;;;;;;;;;4961973;28;20548;-72
2021/01/18 06:42:01;;;;;;;13.02;6.35;;;;;;;;;;4969945;28;20117;-72
2021/01/18 06:44:34;;;;;;;12.57;7.53;;;;;;;;;;4972642;28;20076;-71
2021/01/18 06:47:00;;;;;;;;;;;;;;;;;;4973595;28;20144;-71
2021/01/18 06:49:27;;;;;;;11.38;6.70;;;;;;;;;;4971171;28;19922;-71
2021/01/18 06:51:57;;;;;;;19.00;6.88;;;;;;;;;;4936994;28;20518;-72
2021/01/18 06:54:26;;;;;;;9.90;5.93;;;;;;;;;;4954080;28;20062;-71
2021/01/18 06:57:13;;;;;;;11.98;6.13;;;;;;;;;;4952688;28;20051;-72
2021/01/18 06:59:49;;;;;;;13.55;6.88;;;;;;;;;;4953840;28;20066;-71
2021/01/18 07:02:33;;;;;;;8.18;5.20;;;;;;;;;;4945727;28;20117;-71
2021/01/18 07:05:06;;;;;;;11.57;5.70;;;;;;;;;;4952788;28;20047;-71
2021/01/18 07:07:36;;;;;;;10.18;6.40;;;;;;;;;;4953865;29;20051;-72
2021/01/18 07:10:10;;;;;;;12.48;6.57;;;;;;;;;;4953761;28;20102;-72
2021/01/18 07:12:36;;;;;;;15.30;7.50;;;;;;;;;;4936873;29;20058;-73
2021/01/18 07:15:10;;;;;;;9.60;6.13;;;;;;;;;;4950059;28;20051;-71
2021/01/18 07:17:42;;;;;;;9.73;5.88;;;;;;;;;;4951259;28;20426;-71
2021/01/18 07:20:23;;;;;;;9.70;5.93;;;;;;;;;;4963957;28;20054;-71
2021/01/18 07:23:15;;;;;;;9.48;4.82;;;;;;;;;;4969963;28;20062;-73
2021/01/18 07:25:44;;;;;;;11.02;5.47;;;;;;;;;;4971069;28;20090;-72
2021/01/18 07:28:18;;;;;;;13.05;4.93;;;;;;;;;;4969516;28;20055;-72
2021/01/18 07:30:44;;;;;;;8.50;4.32;;;;;;;;;;4954677;28;20055;-72
2021/01/18 07:33:12;;;;;;;9.32;5.47;;;;;;;;;;4954907;28;20054;-72
2021/01/18 07:35:39;;;;;;;9.30;5.68;;;;;;;;;;4973639;28;20058;-73
2021/01/18 07:38:09;;;;;;;12.20;6.20;;;;;;;;;;4957994;28;20098;-72
2021/01/18 07:40:36;;;;;;;9.55;5.65;;;;;;;;;;4974828;28;20055;-73
2021/01/18 07:43:02;;;;;;;7.80;4.95;;;;;;;;;;4957610;28;20058;-73
2021/01/18 07:45:28;;;;;;;8.38;5.18;;;;;;;;;;4957649;28;20058;-72
2021/01/18 07:47:54;;;;;;;9.45;4.97;;;;;;;;;;4957358;28;20101;-72
2021/01/18 07:50:30;;;;;;;10.57;5.25;;;;;;;;;;4974896;28;20051;-73
2021/01/18 07:53:01;;;;;;;15.45;8.48;;;;;;;;;;4974141;28;20114;-73
2021/01/18 07:55:28;;;;;;;19.83;7.95;;;;;;;;;;4957775;28;20047;-73
2021/01/18 07:57:54;;;;;;;11.15;5.72;;;;;;;;;;4941662;28;20078;-72
2021/01/18 08:00:26;;;;;;;9.07;5.93;;;;;;;;;;4957474;28;20055;-72
2021/01/18 08:02:53;;;;;;;14.32;6.82;;;;;;;;;;4973379;28;20506;-73
2021/01/18 08:05:21;;;;;;;9.48;5.57;;;;;;;;;;4957301;28;20465;-73
2021/01/18 08:08:16;;;;;;;12.18;5.60;;;;;;;;;;4962083;28;20055;-72
2021/01/18 08:11:12;;;;;;;8.82;5.80;;;;;;;;;;4967400;28;20145;-71
2021/01/18 08:13:58;;;;;;;12.82;5.78;;;;;;;;;;4973631;28;20046;-71
2021/01/18 08:16:36;;;;;;;13.20;6.25;;;;;;;;;;4956799;28;20097;-72
2021/01/18 08:19:13;;;;;;;8.80;5.68;;;;;;;;;;4968724;28;20051;-71
2021/01/18 08:21:45;;;;;;;9.80;6.63;;;;;;;;;;4964509;28;20059;-71
2021/01/18 08:24:27;;;;;;;13.27;6.28;;;;;;;;;;4971109;28;20566;-70
2021/01/18 08:26:59;;;;;;;11.20;5.97;;;;;;;;;;4963712;28;20078;-70
2021/01/18 08:29:48;;;;;;;16.05;5.93;;;;;;;;;;4974928;28;20059;-70
2021/01/18 08:32:20;;;;;;;18.63;6.35;;;;;;;;;;4957100;28;20051;-71
2021/01/18 08:35:00;;;;;;;12.87;6.20;;;;;;;;;;4959870;28;20071;-70
2021/01/18 08:37:28;;;;;;;9.68;6.53;;;;;;;;;;4969138;28;20490;-70
2021/01/18 08:39:55;;;;;;;11.15;6.07;;;;;;;;;;4955718;28;20055;-73
2021/01/18 08:42:25;;;;;;;9.73;6.13;;;;;;;;;;4999674;23;20046;-70
2021/01/18 08:45:07;;;;;;;11.23;6.53;;;;;;;;;;5007917;28;20054;-70
2021/01/18 08:47:39;;;;;;;9.52;6.30;;;;;;;;;;4997081;28;20509;-70
2021/01/18 08:50:19;;;;;;;14.13;6.18;;;;;;;;;;5000053;28;20448;-70
2021/01/18 08:52:45;;;;;;;13.57;5.85;;;;;;;;;;5010263;28;20088;-70
2021/01/18 08:55:30;;;;;;;14.65;6.32;;;;;;;;;;5009879;28;20050;-70
2021/01/18 08:58:03;;;;;;;9.23;5.97;;;;;;;;;;5011436;28;20054;-75
2021/01/18 09:00:39;;;;;;;10.57;6.28;;;;;;;;;;4985997;28;20144;-74
2021/01/18 09:03:06;;;;;;;8.27;5.13;;;;;;;;;;5040283;22;20049;-77
2021/01/18 09:05:32;;;;;;;9.55;6.25;;;;;;;;;;5013838;28;20512;-76
2021/01/18 09:07:59;;;;;;;12.85;6.18;;;;;;;;;;5004149;28;20053;-81
2021/01/18 09:10:25;;;;;;;11.23;6.18;;;;;;;;;;4999656;28;20460;-80
2021/01/18 09:12:52;;;;;;;11.07;6.13;;;;;;;;;;5001403;28;20394;-77
2021/01/18 09:15:19;;;;;;;10.10;6.10;;;;;;;;;;5001625;28;20049;-78
2021/01/18 09:17:49;;;;;;;8.65;5.93;;;;;;;;;;5000972;28;20060;-79
2021/01/18 09:20:16;;;;;;;11.07;5.95;;;;;;;;;;5009412;28;20406;-80
2021/01/18 09:22:43;;;;;;;8.85;6.22;;;;;;;;;;4993484;28;20053;-80
2021/01/18 09:25:11;;;;;;;14.68;6.45;;;;;;;;;;5001989;28;20056;-79
2021/01/18 09:27:38;;;;;;;11.60;6.38;;;;;;;;;;5001667;28;20409;-78
2021/01/18 09:30:16;;;;;;;13.80;7.32;;;;;;;;;;4997060;28;20053;-78
2021/01/18 09:32:53;;;;;;;15.45;8.63;;;;;;;;;;5001313;28;20049;-79
2021/01/18 09:35:20;;;;;;;13.98;7.07;;;;;;;;;;5000577;28;20120;-79
2021/01/18 09:37:48;;;;;;;10.45;6.18;;;;;;;;;;5001929;28;20136;-79
2021/01/18 09:40:31;;;;;;;;;;;;;;;;;;4996850;28;20046;-79
2021/01/18 09:42:58;;;;;;;13.10;6.30;;;;;;;;;;5018106;28;19920;-83
2021/01/18 09:45:26;;;;;;;18.92;8.07;;;;;;;;;;5000602;28;20057;-78
2021/01/18 09:48:00;;;;;;;12.75;7.20;;;;;;;;;;5000161;28;20045;-79
2021/01/18 09:50:26;;;;;;;14.02;6.32;;;;;;;;;;5011198;28;20364;-77
2021/01/18 09:52:53;;;;;;;10.20;5.90;;;;;;;;;;5001420;28;20049;-80
2021/01/18 09:55:36;;;;;;;12.00;6.63;;;;;;;;;;4998882;28;20086;-80
2021/01/18 09:58:19;;;;;;;9.40;6.53;;;;;;;;;;4999803;28;20055;-81
2021/01/18 10:00:47;;;;;;;14.02;7.15;;;;;;;;;;5005214;28;20049;-82
2021/01/18 10:03:26;;;;;;;9.77;6.60;;;;;;;;;;4998496;28;20057;-80
2021/01/18 10:06:05;;;;;;;11.32;5.88;;;;;;;;;;5041476;23;20041;-73
2021/01/18 10:08:31;;;;;;;12.00;5.80;;;;;;;;;;5031481;28;20045;-74
2021/01/18 10:10:59;;;;;;;8.18;5.47;;;;;;;;;;5046174;28;20100;-76
2021/01/18 10:13:25;;;;;;;10.00;5.18;;;;;;;;;;5008637;28;20521;-71
2021/01/18 10:15:52;;;;;;;7.50;4.55;;;;;;;;;;5019879;28;21142;-71
2021/01/18 10:18:42;;;;;;;9.70;5.18;;;;;;;;;;5011243;28;20389;-74
2021/01/18 10:21:09;;;;;;;9.10;4.95;;;;;;;;;;5009615;28;20568;-74
2021/01/18 10:23:38;;;;;;;9.82;5.60;;;;;;;;;;5010153;28;20105;-72
2021/01/18 10:26:33;;;;;;;15.95;7.97;;;;;;;;;;5010756;28;20119;-71
2021/01/18 10:29:06;;;;;;;9.95;5.45;;;;;;;;;;5007656;28;20124;-71
2021/01/18 10:31:33;;;;;;;20.65;11.35;;;;;;;;;;5009461;28;20119;-71
2021/01/18 10:34:13;;;;;;;20.55;10.20;;;;;;;;;;4991731;28;20057;-73
2021/01/18 10:36:41;;;;;;;27.48;10.85;;;;;;;;;;5007725;28;20548;-70
2021/01/18 10:39:07;;;;;;;34.70;12.63;;;;;;;;;;5008005;28;20586;-74
2021/01/18 10:41:34;;;;;;;24.90;10.75;;;;;;;;;;5007897;28;20104;-72
2021/01/18 10:44:12;;;;;;;15.88;7.60;;;;;;;;;;5010725;28;20081;-74
2021/01/18 10:46:38;;;;;;;7.55;3.97;;;;;;;;;;4991357;28;20345;-74
2021/01/18 10:49:05;;;;;;;6.05;4.07;;;;;;;;;;4991983;28;20412;-72
2021/01/18 10:51:31;;;;;;;8.20;3.95;;;;;;;;;;5009556;28;20054;-73
2021/01/18 10:54:01;;;;;;;4.72;2.97;;;;;;;;;;5009278;28;20524;-74
2021/01/18 10:56:45;;;;;;;4.78;3.42;;;;;;;;;;5011490;28;20053;-72
2021/01/18 10:59:12;;;;;;;5.75;3.50;;;;;;;;;;5008617;28;20050;-71
2021/01/18 11:01:38;;;;;;;6.07;3.40;;;;;;;;;;5008629;28;20419;-73
2021/01/18 11:04:04;;;;;;;4.90;3.20;;;;;;;;;;4991101;28;20057;-73
2021/01/18 11:06:33;;;;;;;6.93;3.63;;;;;;;;;;4989237;28;20065;-73
2021/01/18 11:09:00;;;;;;;5.65;3.55;;;;;;;;;;5008711;28;20057;-74
2021/01/18 11:11:28;;;;;;;4.95;3.60;;;;;;;;;;5009560;28;20046;-75
2021/01/18 11:14:02;;;;;;;4.63;3.60;;;;;;;;;;5009104;28;20053;-75
2021/01/18 11:16:28;;;;;;;5.63;3.75;;;;;;;;;;4991851;28;20188;-74
2021/01/18 11:19:13;;;;;;;10.15;3.72;;;;;;;;;;5002361;28;20139;-79
2021/01/18 11:21:44;;;;;;;8.65;3.42;;;;;;;;;;5011298;28;20054;-78
2021/01/18 11:24:12;;;;;;;6.78;3.47;;;;;;;;;;5011905;28;20050;-74
2021/01/18 11:26:38;;;;;;;6.93;4.20;;;;;;;;;;5008484;28;20046;-70
2021/01/18 11:29:04;;;;;;;10.98;3.88;;;;;;;;;;5005185;28;20167;-70
2021/01/18 11:31:32;;;;;;;7.63;4.07;;;;;;;;;;5008776;28;20054;-71
2021/01/18 11:34:00;;;;;;;8.68;4.75;;;;;;;;;;5007827;28;20515;-70
2021/01/18 11:36:26;;;;;;;6.60;3.85;;;;;;;;;;5008685;28;20658;-71
2021/01/18 11:38:52;;;;;;;7.03;3.63;;;;;;;;;;5008693;28;20045;-71
2021/01/18 11:41:21;;;;;;;5.93;3.85;;;;;;;;;;5009343;28;20050;-71
2021/01/18 11:43:47;;;;;;;9.65;4.95;;;;;;;;;;5007594;28;20058;-71
2021/01/18 11:46:17;;;;;;;9.85;5.35;;;;;;;;;;5005958;28;20082;-71
2021/01/18 11:48:44;;;;;;;14.75;5.20;;;;;;;;;;5007370;28;20090;-71
2021/01/18 11:51:10;;;;;;;6.70;4.63;;;;;;;;;;5008733;28;20516;-71
2021/01/18 11:53:36;;;;;;;6.25;4.97;;;;;;;;;;5008389;28;20050;-72
2021/01/18 11:56:02;;;;;;;13.60;6.80;;;;;;;;;;5007474;28;20050;-72
2021/01/18 11:58:29;;;;;;;20.58;8.27;;;;;;;;;;5005977;28;20077;-71
2021/01/18 12:00:55;;;;;;;25.63;10.20;;;;;;;;;;5005583;28;20689;-72
2021/01/18 12:03:22;;;;;;;23.27;9.70;;;;;;;;;;5007326;28;20496;-72
2021/01/18 12:05:48;;;;;;;20.60;8.65;;;;;;;;;;5008160;28;20447;-71
2021/01/18 12:08:14;;;;;;;12.07;5.88;;;;;;;;;;5008492;28;20049;-72
2021/01/18 12:10:41;;;;;;;12.82;6.05;;;;;;;;;;5005001;28;20054;-75
2021/01/18 12:13:07;;;;;;;11.48;5.18;;;;;;;;;;5008356;28;20065;-75
2021/01/18 12:15:33;;;;;;;16.67;7.18;;;;;;;;;;5005005;28;20042;-75
2021/01/18 12:18:00;;;;;;;9.73;5.30;;;;;;;;;;4992795;28;20046;-69
2021/01/18 12:20:26;;;;;;;9.65;3.85;;;;;;;;;;5011499;28;20180;-71
2021/01/18 12:22:53;;;;;;;6.57;3.33;;;;;;;;;;4995591;28;20741;-71
2021/01/18 12:25:20;;;;;;;5.97;3.30;;;;;;;;;;5010336;28;20527;-73
2021/01/18 12:27:50;;;;;;;7.50;3.15;;;;;;;;;;5010825;28;20054;-74
2021/01/18 12:30:17;;;;;;;6.35;3.35;;;;;;;;;;5010026;28;20563;-74
2021/01/18 12:32:43;;;;;;;6.55;3.63;;;;;;;;;;5010023;28;20050;-75
2021/01/18 12:35:10;;;;;;;5.32;3.35;;;;;;;;;;4999830;28;20182;-75
2021/01/18 12:37:37;;;;;;;7.63;3.92;;;;;;;;;;5007416;28;20504;-75
2021/01/18 12:40:07;;;;;;;4.68;3.83;;;;;;;;;;5010760;28;20046;-75
2021/01/18 12:42:34;;;;;;;5.25;3.17;;;;;;;;;;5011142;28;20042;-73
2021/01/18 12:45:00;;;;;;;6.68;3.50;;;;;;;;;;5010620;28;20574;-73
2021/01/18 12:47:26;;;;;;;7.65;3.60;;;;;;;;;;5011256;28;20057;-74
2021/01/18 12:49:52;;;;;;;6.68;3.33;;;;;;;;;;5027720;28;20053;-72
2021/01/18 12:52:18;;;;;;;5.15;3.45;;;;;;;;;;5009606;28;20496;-73
2021/01/18 12:54:47;;;;;;;8.40;3.88;;;;;;;;;;5010078;28;20523;-72
2021/01/18 12:57:13;;;;;;;5.47;3.58;;;;;;;;;;5010894;28;20681;-71
2021/01/18 12:59:39;;;;;;;7.30;3.95;;;;;;;;;;5011538;28;20049;-72
2021/01/18 13:02:07;;;;;;;6.70;3.90;;;;;;;;;;5011276;28;20053;-72
2021/01/18 13:04:33;;;;;;;6.03;2.80;;;;;;;;;;5008764;28;20041;-72
2021/01/18 13:06:59;;;;;;;6.70;2.85;;;;;;;;;;5012569;28;20042;-72
2021/01/18 13:09:25;;;;;;;7.00;2.30;;;;;;;;;;5011180;28;20050;-72
2021/01/18 13:11:53;;;;;;;4.47;1.80;;;;;;;;;;5010579;28;20100;-71
2021/01/18 13:14:20;;;;;;;9.48;2.83;;;;;;;;;;5011227;28;20062;-72
2021/01/18 13:16:47;;;;;;;8.88;3.10;;;;;;;;;;5008871;28;20096;-72
2021/01/18 13:19:14;;;;;;;8.38;3.00;;;;;;;;;;5009972;28;20061;-75
2021/01/18 13:21:40;;;;;;;7.63;3.20;;;;;;;;;;5008449;28;20084;-74
2021/01/18 13:24:07;;;;;;;9.38;2.78;;;;;;;;;;5009715;28;20101;-75
2021/01/18 13:26:37;;;;;;;12.77;3.30;;;;;;;;;;4987681;28;20041;-74
2021/01/18 13:29:04;;;;;;;10.25;4.32;;;;;;;;;;4993570;28;20054;-75
2021/01/18 13:31:37;;;;;;;9.02;2.42;;;;;;;;;;4992698;28;20093;-75
2021/01/18 13:34:05;;;;;;;7.72;3.28;;;;;;;;;;5010107;28;20120;-76
2021/01/18 13:36:32;;;;;;;7.57;2.60;;;;;;;;;;5008028;28;20045;-76
2021/01/18 13:38:58;;;;;;;5.97;2.70;;;;;;;;;;4990970;28;20057;-75
2021/01/18 13:41:24;;;;;;;5.15;3.03;;;;;;;;;;5008970;28;20074;-74
2021/01/18 13:43:50;;;;;;;7.43;3.35;;;;;;;;;;5008901;28;20126;-74
2021/01/18 13:46:18;;;;;;;10.90;4.30;;;;;;;;;;5009667;28;20120;-74
2021/01/18 13:48:45;;;;;;;10.05;3.25;;;;;;;;;;5009102;28;20100;-75
2021/01/18 13:51:13;;;;;;;8.60;3.13;;;;;;;;;;5010482;28;20046;-75
2021/01/18 13:53:39;;;;;;;8.18;2.78;;;;;;;;;;4993227;28;20132;-76
2021/01/18 13:56:06;;;;;;;7.30;2.42;;;;;;;;;;5008464;28;20073;-76
2021/01/18 13:58:32;;;;;;;4.43;2.65;;;;;;;;;;5010625;28;20100;-76
2021/01/18 14:00:59;;;;;;;8.23;2.45;;;;;;;;;;5010008;28;20049;-74
2021/01/18 14:03:25;;;;;;;8.40;3.28;;;;;;;;;;5008615;28;20054;-73
2021/01/18 14:05:51;;;;;;;9.68;3.70;;;;;;;;;;5009666;28;20136;-73
2021/01/18 14:08:20;;;;;;;11.63;3.97;;;;;;;;;;5010263;28;20468;-71
2021/01/18 14:10:52;;;;;;;8.00;2.00;;;;;;;;;;5009553;28;20563;-71
2021/01/18 14:13:19;;;;;;;5.57;2.17;;;;;;;;;;5007700;28;20057;-71
2021/01/18 14:15:51;;;;;;;5.50;2.10;;;;;;;;;;5010102;28;20084;-70
2021/01/18 14:18:18;;;;;;;9.05;3.65;;;;;;;;;;5008638;28;20080;-70
2021/01/18 14:20:44;;;;;;;7.38;3.72;;;;;;;;;;5008817;28;20045;-70
2021/01/18 14:23:11;;;;;;;8.18;3.30;;;;;;;;;;5009279;28;20129;-70
2021/01/18 14:25:37;;;;;;;7.47;3.38;;;;;;;;;;5009569;28;20092;-70
2021/01/18 14:28:04;;;;;;;6.32;3.22;;;;;;;;;;5009417;28;20049;-69
2021/01/18 14:30:30;;;;;;;11.02;4.25;;;;;;;;;;5008926;28;20104;-72
2021/01/18 14:32:56;;;;;;;8.52;3.65;;;;;;;;;;5009378;28;20054;-71
2021/01/18 14:35:22;;;;;;;9.15;4.40;;;;;;;;;;5009770;28;20041;-70
2021/01/18 14:37:48;;;;;;;8.40;4.50;;;;;;;;;;5011003;28;20057;-70
2021/01/18 14:40:15;;;;;;;8.25;3.95;;;;;;;;;;5009574;28;20460;-70
2021/01/18 14:42:41;;;;;;;6.28;3.85;;;;;;;;;;5009045;28;20124;-70
2021/01/18 14:45:08;;;;;;;5.25;2.85;;;;;;;;;;5009423;28;20050;-72
2021/01/18 14:47:41;;;;;;;5.13;2.72;;;;;;;;;;5009412;28;20095;-71
2021/01/18 14:50:11;;;;;;;8.35;2.70;;;;;;;;;;5012322;28;20393;-71
2021/01/18 14:52:38;;;;;;;6.70;2.80;;;;;;;;;;5009243;28;20046;-70